Terminal Aerodrome Forecast
Issued by NWS

Home | Current Version | Previous Version | Text Only | Print | Product List | Glossary On
Versions: 1 2 3 4 5 6 7 8 9 10 11 12
000
FTUS43 KMPX 230520
TAFAXN
TAF
KAXN 230520Z 2306/2406 16004KT P6SM BKN250
     FM231400 18006KT P6SM SCT060 BKN120
     FM231900 18009KT P6SM BKN060 OVC090
     FM240100 11005KT P6SM OVC050=

USA.gov is the U.S. government's official web portal to all federal, state and local government web resources and services.